Time;durP1;ratioP1;P1;durP2;ratioP2;P2;SDS_P1;SDS_P2;PMS_P1;PMS_P2;Temp;Humidity;BMP_temperature;BMP_pressure;BME280_temperature;BME280_humidity;BME280_pressure;Samples;Min_cycle;Max_cycle;Signal;HPM_P1;HPM_P2
2021/12/15 00:00:41;;;;;;;2.40;0.80;;;24.90;99.90;;;;;;4994591;28;20125;-63
2021/12/15 00:03:08;;;;;;;1.95;0.82;;;25.10;99.90;;;;;;4994624;28;20448;-61
2021/12/15 00:05:36;;;;;;;5.13;1.80;;;25.50;99.90;;;;;;4994984;28;20034;-64
2021/12/15 00:08:11;;;;;;;8.32;1.10;;;25.40;99.90;;;;;;4995085;28;20379;-62
2021/12/15 00:10:40;;;;;;;3.05;1.13;;;25.60;99.90;;;;;;4994858;28;20031;-65
2021/12/15 00:13:08;;;;;;;2.92;0.88;;;25.80;99.90;;;;;;4994731;28;20026;-64
2021/12/15 00:15:38;;;;;;;2.05;0.73;;;26.00;99.90;;;;;;4994640;28;20036;-65
2021/12/15 00:18:05;;;;;;;5.78;0.70;;;26.10;99.90;;;;;;4995088;28;20447;-64
2021/12/15 00:20:33;;;;;;;2.95;0.65;;;26.20;99.90;;;;;;4993843;28;20030;-65
2021/12/15 00:23:01;;;;;;;3.58;0.85;;;26.40;99.90;;;;;;4993925;28;20068;-62
2021/12/15 00:25:31;;;;;;;3.88;0.93;;;26.50;99.90;;;;;;4991105;28;20097;-62
2021/12/15 00:27:59;;;;;;;1.70;0.70;;;26.60;99.90;;;;;;4990981;28;20371;-62
2021/12/15 00:30:27;;;;;;;1.42;0.65;;;26.60;99.90;;;;;;4993139;28;20106;-63
2021/12/15 00:32:55;;;;;;;2.53;1.17;;;26.80;99.90;;;;;;4990554;28;20072;-63
2021/12/15 00:35:22;;;;;;;2.63;0.80;;;26.80;99.90;;;;;;4992866;28;20018;-63
2021/12/15 00:37:52;;;;;;;2.03;0.70;;;26.80;99.90;;;;;;4992841;28;20026;-63
2021/12/15 00:40:22;;;;;;;5.28;0.65;;;27.00;99.90;;;;;;4992859;28;20045;-65
2021/12/15 00:42:50;;;;;;;2.28;0.95;;;27.10;99.90;;;;;;4992741;28;20026;-64
2021/12/15 00:45:18;;;;;;;4.25;1.15;;;27.30;99.90;;;;;;4992770;28;20108;-64
2021/12/15 00:47:46;;;;;;;1.48;0.70;;;27.40;99.90;;;;;;4992768;28;20037;-63
2021/12/15 00:50:19;;;;;;;1.63;0.40;;;27.40;99.90;;;;;;4992684;28;20018;-66
2021/12/15 00:52:47;;;;;;;1.25;0.55;;;27.50;99.90;;;;;;4993032;28;20030;-63
2021/12/15 00:55:21;;;;;;;1.40;0.77;;;27.60;99.90;;;;;;4993700;28;20383;-65
2021/12/15 00:57:49;;;;;;;3.60;0.88;;;27.70;99.90;;;;;;4993654;28;20387;-65
2021/12/15 01:00:26;;;;;;;5.93;1.00;;;27.80;99.80;;;;;;4993365;28;20037;-65
2021/12/15 01:02:55;;;;;;;3.88;1.00;;;27.90;97.30;;;;;;4993898;28;20519;-66
2021/12/15 01:05:26;;;;;;;4.55;0.77;;;28.10;99.30;;;;;;4994014;28;20034;-61
2021/12/15 01:07:54;;;;;;;6.88;0.50;;;28.10;98.90;;;;;;4994278;28;20035;-63
2021/12/15 01:10:31;;;;;;;1.42;0.77;;;28.30;99.10;;;;;;5000021;28;20026;-63
2021/12/15 01:21:12;;;;;;;5.10;0.98;;;28.70;96.40;;;;;;5000541;28;20049;-65
2021/12/15 01:23:40;;;;;;;2.67;0.65;;;28.70;96.00;;;;;;5000285;28;20026;-64
2021/12/15 01:26:10;;;;;;;1.40;0.68;;;28.80;96.50;;;;;;5000314;28;20029;-63
2021/12/15 01:28:38;;;;;;;4.25;0.73;;;28.90;96.50;;;;;;4998534;28;20096;-65
2021/12/15 01:31:09;;;;;;;2.08;0.50;;;29.00;94.30;;;;;;5000239;28;20084;-64
2021/12/15 01:33:38;;;;;;;3.75;0.82;;;29.10;94.50;;;;;;5000564;28;20034;-65
2021/12/15 01:36:08;;;;;;;2.72;0.68;;;29.30;94.90;;;;;;4994973;28;20361;-62
2021/12/15 01:38:39;;;;;;;1.38;0.60;;;29.30;91.30;;;;;;4997234;28;20026;-63
2021/12/15 01:41:18;;;;;;;4.80;0.80;;;29.40;91.40;;;;;;4998441;28;20041;-62
2021/12/15 01:46:56;;;;;;;1.10;0.63;;;29.60;92.00;;;;;;4997303;28;20117;-61
2021/12/15 01:49:40;;;;;;;7.05;1.00;;;29.80;91.20;;;;;;4997694;28;20482;-61
2021/12/15 01:52:13;;;;;;;1.52;0.77;;;29.90;92.30;;;;;;4997255;28;20030;-64
2021/12/15 01:54:43;;;;;;;1.73;0.70;;;30.00;90.70;;;;;;4999440;28;20484;-62
2021/12/15 01:57:13;;;;;;;2.00;0.73;;;30.20;87.90;;;;;;4999527;28;20022;-64
2021/12/15 01:59:43;;;;;;;1.52;0.50;;;30.20;90.70;;;;;;4999510;28;20030;-64
2021/12/15 02:02:11;;;;;;;4.15;0.88;;;30.10;86.80;;;;;;4997543;28;20419;-64
2021/12/15 02:04:39;;;;;;;2.58;0.77;;;30.20;88.90;;;;;;4999541;28;20026;-65
2021/12/15 02:07:09;;;;;;;2.33;0.60;;;30.40;89.20;;;;;;4996770;28;20026;-65
2021/12/15 02:10:01;;;;;;;2.20;0.45;;;30.50;82.30;;;;;;4999476;28;20408;-61
2021/12/15 02:12:32;;;;;;;2.00;0.60;;;30.50;85.10;;;;;;4999434;28;20030;-63
2021/12/15 02:15:01;;;;;;;2.00;0.73;;;30.40;81.80;;;;;;4999398;28;20026;-63
2021/12/15 02:17:29;;;;;;;1.15;0.40;;;30.50;86.40;;;;;;4990211;28;20364;-63
2021/12/15 02:19:56;;;;;;;6.38;0.60;;;30.70;85.90;;;;;;4989301;28;20026;-64
2021/12/15 02:22:24;;;;;;;1.48;0.30;;;30.70;81.30;;;;;;4986367;28;20050;-64
2021/12/15 02:24:52;;;;;;;4.10;0.80;;;30.80;84.40;;;;;;4995248;28;20022;-65
2021/12/15 02:27:21;;;;;;;1.30;0.50;;;31.00;79.70;;;;;;4995191;28;20108;-64
2021/12/15 02:29:52;;;;;;;2.08;0.45;;;31.00;79.30;;;;;;4995310;28;20061;-64
2021/12/15 02:33:04;;;;;;;3.83;0.60;;;31.00;79.50;;;;;;4991554;28;20023;-63
2021/12/15 02:37:57;;;;;;;;;;;31.00;76.80;;;;;;4985101;28;20025;-63
2021/12/15 02:40:25;;;;;;;3.22;0.63;;;31.30;80.40;;;;;;4988014;28;19965;-64
2021/12/15 02:42:52;;;;;;;1.08;0.50;;;31.40;75.00;;;;;;4994812;28;20031;-62
2021/12/15 02:45:24;;;;;;;1.92;0.60;;;31.30;74.40;;;;;;4995173;28;20022;-63
2021/12/15 02:47:53;;;;;;;8.80;0.55;;;31.30;72.20;;;;;;4995154;28;20015;-62
2021/12/15 02:50:24;;;;;;;5.43;0.55;;;31.30;74.50;;;;;;4994359;28;20486;-62
2021/12/15 02:52:54;;;;;;;5.25;0.68;;;31.10;71.10;;;;;;4995431;28;20076;-62
2021/12/15 02:55:21;;;;;;;1.83;0.60;;;30.90;71.40;;;;;;4996138;28;20026;-63
2021/12/15 02:57:49;;;;;;;2.38;0.70;;;31.30;75.00;;;;;;4996246;28;20026;-62
2021/12/15 03:00:22;;;;;;;1.67;0.70;;;31.50;76.70;;;;;;4996238;28;20038;-63
2021/12/15 03:05:47;;;;;;;1.73;0.65;;;31.70;75.10;;;;;;4995681;28;20160;-62
2021/12/15 03:08:23;;;;;;;2.55;0.55;;;31.80;75.00;;;;;;4995233;28;20494;-62
2021/12/15 03:16:29;;;;;;;6.03;0.63;;;31.80;70.90;;;;;;4996272;28;20157;-63
2021/12/15 03:18:58;;;;;;;0.90;0.38;;;31.90;71.30;;;;;;4995826;28;20419;-62
2021/12/15 03:21:27;;;;;;;1.25;0.60;;;32.00;66.10;;;;;;4995783;28;20038;-63
2021/12/15 03:23:59;;;;;;;1.95;0.70;;;32.00;68.70;;;;;;4995728;28;20037;-63
2021/12/15 03:26:33;;;;;;;5.90;0.50;;;32.20;66.50;;;;;;4995584;28;20113;-62
2021/12/15 03:35:07;;;;;;;;;;;32.20;69.00;;;;;;4996685;28;20053;-63
2021/12/15 03:37:39;;;;;;;1.75;0.70;;;32.20;72.00;;;;;;4995428;28;19912;-63
2021/12/15 03:40:11;;;;;;;1.98;0.73;;;31.90;65.60;;;;;;4995526;28;20038;-63
2021/12/15 03:42:54;;;;;;;3.15;0.60;;;31.60;67.80;;;;;;4995229;28;20558;-65
2021/12/15 03:45:28;;;;;;;4.07;0.60;;;31.60;68.50;;;;;;4996020;28;20380;-63
2021/12/15 03:47:58;;;;;;;2.50;0.57;;;32.00;69.70;;;;;;4995172;28;20034;-66
2021/12/15 03:50:28;;;;;;;2.05;0.60;;;32.40;71.00;;;;;;4995133;28;20475;-64
2021/12/15 03:52:56;;;;;;;2.53;0.73;;;32.40;68.00;;;;;;4995288;28;20053;-64
2021/12/15 03:55:28;;;;;;;2.78;0.68;;;32.40;67.30;;;;;;4995174;28;20399;-63
2021/12/15 03:57:55;;;;;;;2.72;0.93;;;32.20;68.20;;;;;;4989760;28;20050;-63
2021/12/15 04:00:24;;;;;;;2.38;0.82;;;32.40;73.10;;;;;;4991220;28;20034;-65
2021/12/15 04:02:52;;;;;;;1.52;0.90;;;32.50;71.20;;;;;;4992698;28;20054;-63
2021/12/15 04:05:21;;;;;;;2.08;0.57;;;32.50;69.60;;;;;;4993464;28;20559;-64
2021/12/15 04:07:52;;;;;;;7.95;1.27;;;32.60;71.80;;;;;;4990625;28;20076;-64
2021/12/15 04:10:23;;;;;;;3.40;1.08;;;32.40;69.00;;;;;;4993562;28;20018;-66
2021/12/15 04:12:50;;;;;;;3.03;0.45;;;32.30;69.80;;;;;;4991033;28;20106;-64
2021/12/15 04:18:01;;;;;;;4.07;1.27;;;32.40;73.40;;;;;;4984692;28;20057;-64
2021/12/15 04:20:32;;;;;;;3.03;1.20;;;32.50;73.40;;;;;;4993648;28;20066;-64
2021/12/15 04:23:00;;;;;;;4.03;1.15;;;32.70;71.20;;;;;;4993863;28;20034;-63
2021/12/15 04:25:30;;;;;;;4.35;1.00;;;32.60;73.50;;;;;;4991522;28;20077;-65
2021/12/15 04:28:04;;;;;;;2.35;0.70;;;32.40;73.20;;;;;;4994106;28;20464;-64
2021/12/15 04:30:35;;;;;;;2.72;0.90;;;32.30;75.00;;;;;;4989182;28;20036;-64
2021/12/15 04:33:12;;;;;;;4.07;1.20;;;32.30;75.70;;;;;;4992574;28;20026;-64
2021/12/15 04:35:42;;;;;;;4.22;1.02;;;32.30;75.00;;;;;;4992406;28;20030;-64
2021/12/15 04:38:10;;;;;;;4.07;0.90;;;32.10;75.50;;;;;;4987800;28;20018;-65
2021/12/15 04:40:38;;;;;;;10.15;1.17;;;32.10;73.90;;;;;;4991707;28;20096;-64
2021/12/15 04:43:06;;;;;;;1.95;0.70;;;32.00;74.30;;;;;;4991995;28;20049;-65
2021/12/15 04:45:34;;;;;;;2.42;0.60;;;32.10;74.90;;;;;;4991640;28;20077;-64
2021/12/15 04:48:01;;;;;;;5.63;1.17;;;32.20;74.10;;;;;;4992642;28;20042;-64
2021/12/15 04:50:30;;;;;;;4.93;1.20;;;32.10;72.20;;;;;;4988595;28;20036;-64
2021/12/15 04:53:03;;;;;;;5.53;1.08;;;32.20;76.00;;;;;;4988976;28;20022;-64
2021/12/15 04:55:33;;;;;;;6.72;1.00;;;32.10;75.60;;;;;;4991838;28;20048;-65
2021/12/15 04:58:03;;;;;;;3.40;1.00;;;31.90;75.10;;;;;;4991665;28;20026;-64
2021/12/15 05:00:34;;;;;;;5.03;1.30;;;31.80;77.40;;;;;;4991215;28;20038;-64
2021/12/15 05:03:03;;;;;;;3.20;0.77;;;31.80;78.20;;;;;;4990058;28;20070;-64
2021/12/15 05:05:33;;;;;;;2.95;0.88;;;31.50;76.60;;;;;;4992336;28;20089;-64
2021/12/15 05:08:01;;;;;;;3.65;0.90;;;31.20;76.10;;;;;;4990140;28;20030;-63
2021/12/15 05:10:28;;;;;;;2.88;0.80;;;31.10;78.60;;;;;;4991875;28;20037;-64
2021/12/15 05:12:57;;;;;;;4.10;1.20;;;30.90;78.20;;;;;;4992413;28;20023;-64
2021/12/15 05:15:26;;;;;;;3.28;0.98;;;30.80;80.70;;;;;;4991537;28;21515;-64
2021/12/15 05:17:54;;;;;;;3.15;0.95;;;30.70;77.30;;;;;;4991291;28;20058;-65
2021/12/15 05:20:23;;;;;;;2.55;1.13;;;30.60;77.70;;;;;;4990570;28;20100;-64
2021/12/15 05:22:50;;;;;;;5.63;0.75;;;30.60;79.10;;;;;;4991085;28;20042;-64
2021/12/15 05:25:18;;;;;;;2.15;0.80;;;30.60;79.40;;;;;;4991208;28;20027;-63
2021/12/15 05:27:46;;;;;;;4.97;1.00;;;30.50;80.10;;;;;;4991252;28;20049;-64
2021/12/15 05:30:17;;;;;;;2.88;0.80;;;30.60;80.30;;;;;;4990665;28;20499;-65
2021/12/15 05:32:44;;;;;;;2.88;1.23;;;30.60;78.40;;;;;;4989235;28;20070;-64
2021/12/15 05:35:20;;;;;;;2.53;0.80;;;30.60;81.30;;;;;;4991145;28;20030;-63
2021/12/15 05:37:49;;;;;;;4.38;0.90;;;30.80;79.30;;;;;;4991154;28;20065;-63
2021/12/15 05:40:17;;;;;;;2.63;0.70;;;30.70;77.60;;;;;;4990919;28;20029;-64
2021/12/15 05:42:44;;;;;;;3.55;0.88;;;30.80;79.80;;;;;;4991043;28;20030;-64
2021/12/15 05:45:12;;;;;;;2.65;0.80;;;30.80;79.00;;;;;;4991570;28;20022;-62
2021/12/15 05:47:41;;;;;;;4.82;1.00;;;30.80;78.90;;;;;;4989876;28;20077;-62
2021/12/15 05:50:12;;;;;;;4.88;0.95;;;30.60;79.40;;;;;;4986966;28;20022;-64
2021/12/15 05:52:40;;;;;;;3.95;1.15;;;30.50;78.70;;;;;;4992585;28;20415;-62
2021/12/15 05:55:12;;;;;;;2.42;0.77;;;30.40;77.60;;;;;;4992761;28;20539;-62
2021/12/15 05:57:40;;;;;;;5.80;0.95;;;30.20;77.80;;;;;;4995191;28;20035;-62
2021/12/15 06:00:14;;;;;;;2.50;0.70;;;30.10;77.60;;;;;;4995128;28;20034;-63
2021/12/15 06:02:42;;;;;;;1.15;0.50;;;30.20;80.10;;;;;;4994842;28;20053;-62
2021/12/15 06:05:11;;;;;;;2.92;0.80;;;30.20;79.40;;;;;;4990909;28;20041;-63
2021/12/15 06:07:39;;;;;;;4.40;0.85;;;30.20;80.20;;;;;;4993265;28;20026;-63
2021/12/15 06:10:09;;;;;;;2.78;0.68;;;30.10;79.20;;;;;;4995410;28;20037;-64
2021/12/15 06:12:37;;;;;;;4.78;1.15;;;29.90;80.20;;;;;;4994183;28;20029;-63
2021/12/15 06:15:06;;;;;;;3.35;1.00;;;29.80;80.30;;;;;;4994278;28;20029;-64
2021/12/15 06:17:33;;;;;;;2.25;0.50;;;29.60;80.40;;;;;;4994377;28;20019;-64
2021/12/15 06:20:01;;;;;;;4.32;1.08;;;29.40;81.50;;;;;;4993914;28;20407;-64
2021/12/15 06:22:30;;;;;;;1.65;0.50;;;29.30;82.20;;;;;;4994111;28;20037;-64
2021/12/15 06:24:58;;;;;;;5.82;1.30;;;29.30;82.60;;;;;;4992091;28;20072;-64
2021/12/15 06:27:29;;;;;;;2.47;0.90;;;29.20;83.60;;;;;;4994189;28;20476;-64
2021/12/15 06:29:56;;;;;;;3.55;0.80;;;29.20;83.10;;;;;;4989630;28;20030;-63
2021/12/15 06:32:23;;;;;;;7.40;0.70;;;29.20;84.40;;;;;;4994081;28;20054;-64
2021/12/15 06:34:51;;;;;;;4.57;1.10;;;29.10;85.30;;;;;;4994660;28;20093;-64
2021/12/15 06:37:18;;;;;;;2.35;0.90;;;29.10;85.60;;;;;;4993291;28;20050;-63
2021/12/15 06:39:45;;;;;;;4.03;0.98;;;29.00;84.80;;;;;;4994038;28;20022;-63
2021/12/15 06:42:13;;;;;;;1.52;0.50;;;28.90;85.00;;;;;;4993462;28;20034;-65
2021/12/15 06:44:41;;;;;;;6.28;0.90;;;28.70;85.70;;;;;;4993832;28;20029;-63
2021/12/15 07:00:45;;;;;;;4.13;0.90;;;28.40;86.30;;;;;;4985369;28;20038;-64
2021/12/15 07:03:13;;;;;;;3.55;0.85;;;28.30;87.70;;;;;;4993360;28;20050;-64
2021/12/15 07:05:41;;;;;;;6.32;1.02;;;28.20;89.10;;;;;;4995483;28;20041;-65
2021/12/15 07:08:10;;;;;;;3.90;1.33;;;28.10;88.70;;;;;;4992276;28;20387;-63
2021/12/15 07:10:40;;;;;;;8.18;1.58;;;28.10;89.80;;;;;;4995441;28;20050;-64
2021/12/15 07:13:10;;;;;;;4.78;0.85;;;28.00;90.20;;;;;;4992994;28;20030;-64
2021/12/15 07:15:39;;;;;;;3.05;1.23;;;27.90;90.40;;;;;;4995253;28;20158;-64
2021/12/15 07:18:10;;;;;;;4.00;1.33;;;27.80;90.60;;;;;;4995288;28;20022;-65
2021/12/15 07:20:48;;;;;;;4.35;1.35;;;27.80;90.60;;;;;;4995319;28;20030;-64
2021/12/15 07:23:20;;;;;;;7.55;1.15;;;27.90;90.50;;;;;;4985342;28;20034;-64
2021/12/15 07:25:50;;;;;;;3.63;1.02;;;27.90;90.50;;;;;;4995184;28;20026;-64
2021/12/15 07:28:20;;;;;;;2.85;0.80;;;27.90;90.30;;;;;;4995235;28;20026;-64
2021/12/15 07:30:49;;;;;;;3.38;0.93;;;27.80;90.50;;;;;;4995160;28;20018;-64
2021/12/15 07:33:16;;;;;;;2.17;0.77;;;27.70;90.30;;;;;;4995105;28;20069;-64
2021/12/15 07:35:45;;;;;;;3.03;1.20;;;28.10;90.50;;;;;;4994932;28;20146;-63
2021/12/15 07:38:12;;;;;;;2.55;1.00;;;28.60;89.50;;;;;;4995081;28;20478;-63
2021/12/15 07:40:40;;;;;;;4.28;0.95;;;29.30;88.80;;;;;;4994208;28;20038;-64
2021/12/15 07:43:23;;;;;;;7.97;0.80;;;30.00;86.80;;;;;;4991772;28;20503;-64
2021/12/15 07:46:12;;;;;;;2.70;1.02;;;30.60;85.80;;;;;;4993436;28;20485;-64
2021/12/15 07:48:40;;;;;;;4.50;1.30;;;30.90;83.80;;;;;;4993902;28;20479;-64
2021/12/15 07:51:10;;;;;;;4.88;0.98;;;30.60;83.90;;;;;;4994194;28;20029;-64
2021/12/15 07:53:40;;;;;;;3.40;1.13;;;30.10;83.90;;;;;;4993979;28;20434;-64
2021/12/15 07:56:08;;;;;;;2.30;0.80;;;29.60;84.00;;;;;;4994279;28;20383;-65
2021/12/15 07:58:35;;;;;;;2.85;1.17;;;29.10;87.30;;;;;;4993700;28;20109;-66
2021/12/15 08:01:06;;;;;;;2.83;0.77;;;28.70;87.90;;;;;;4993801;28;20080;-65
2021/12/15 08:03:36;;;;;;;7.68;1.23;;;28.30;88.70;;;;;;4993692;28;20030;-65
2021/12/15 08:06:04;;;;;;;4.07;1.10;;;28.00;90.30;;;;;;4994011;28;20487;-64
2021/12/15 08:08:32;;;;;;;4.65;1.00;;;27.70;90.80;;;;;;4994659;28;20027;-64
2021/12/15 08:11:03;;;;;;;5.07;0.95;;;27.50;91.30;;;;;;4994369;28;20077;-65
2021/12/15 08:13:34;;;;;;;5.45;0.70;;;27.20;91.50;;;;;;4988796;28;20018;-64
2021/12/15 08:16:01;;;;;;;3.45;1.38;;;27.10;91.90;;;;;;4992628;28;20050;-64
2021/12/15 08:18:29;;;;;;;2.10;0.73;;;26.90;92.20;;;;;;4984204;28;20475;-64
2021/12/15 08:20:57;;;;;;;2.60;0.90;;;26.80;92.40;;;;;;4984869;28;20042;-66
2021/12/15 08:23:25;;;;;;;3.28;1.15;;;26.80;92.50;;;;;;4989172;28;20029;-64
2021/12/15 08:25:52;;;;;;;2.83;1.00;;;26.70;92.40;;;;;;4992679;28;20025;-63
2021/12/15 08:28:20;;;;;;;5.45;1.02;;;26.70;92.50;;;;;;4992324;28;20430;-63
2021/12/15 08:30:49;;;;;;;4.55;1.05;;;26.70;92.90;;;;;;4992523;28;20072;-64
2021/12/15 08:33:20;;;;;;;2.97;1.02;;;26.60;93.10;;;;;;4992562;28;20484;-65
2021/12/15 08:35:58;;;;;;;3.15;1.13;;;26.50;93.20;;;;;;4992525;28;20018;-64
2021/12/15 08:38:26;;;;;;;3.30;0.88;;;26.50;93.30;;;;;;4991964;28;20033;-65
2021/12/15 08:40:55;;;;;;;2.83;1.02;;;26.30;93.70;;;;;;4992668;28;20109;-65
2021/12/15 08:43:23;;;;;;;11.02;0.90;;;26.30;94.00;;;;;;4992251;28;20048;-64
2021/12/15 08:46:04;;;;;;;2.08;0.68;;;26.20;92.90;;;;;;4990119;28;20015;-66
2021/12/15 08:48:34;;;;;;;5.55;0.85;;;26.10;93.00;;;;;;4991080;28;20065;-66
2021/12/15 08:51:01;;;;;;;2.15;0.73;;;26.10;93.20;;;;;;4995155;28;20398;-67
2021/12/15 08:53:29;;;;;;;4.63;0.70;;;26.00;93.30;;;;;;4989459;28;20081;-66
2021/12/15 08:55:56;;;;;;;2.58;0.88;;;26.00;92.90;;;;;;4992066;28;20606;-66
2021/12/15 08:58:25;;;;;;;2.70;0.60;;;26.00;93.00;;;;;;4992066;28;20044;-66
2021/12/15 09:00:56;;;;;;;3.10;0.80;;;25.90;92.90;;;;;;4993115;28;20069;-66
2021/12/15 09:03:24;;;;;;;4.65;0.90;;;26.00;92.90;;;;;;4993418;28;20038;-66
2021/12/15 09:05:54;;;;;;;2.17;0.80;;;25.90;92.40;;;;;;4993437;28;20071;-66
2021/12/15 09:08:23;;;;;;;2.15;0.60;;;25.90;91.70;;;;;;4992356;28;20034;-66
2021/12/15 09:10:54;;;;;;;4.22;0.80;;;25.90;92.00;;;;;;4989277;28;20027;-67
2021/12/15 09:13:22;;;;;;;5.68;0.88;;;25.80;92.30;;;;;;4991590;28;20392;-67
2021/12/15 09:15:50;;;;;;;10.25;2.05;;;25.50;93.90;;;;;;4982501;28;20023;-66
2021/12/15 09:18:18;;;;;;;6.30;1.20;;;25.00;99.90;;;;;;4981930;28;20465;-64
2021/12/15 09:20:46;;;;;;;2.38;1.38;;;24.10;99.90;;;;;;4980486;28;20118;-67
2021/12/15 09:23:16;;;;;;;2.45;1.10;;;23.10;99.90;;;;;;4982594;28;20014;-65
2021/12/15 09:25:45;;;;;;;6.55;1.20;;;22.50;99.90;;;;;;4984772;28;20018;-66
2021/12/15 09:28:13;;;;;;;6.72;1.20;;;22.20;99.90;;;;;;4984175;28;20058;-66
2021/12/15 09:30:46;;;;;;;3.08;1.05;;;22.10;99.90;;;;;;4995731;28;20014;-66
2021/12/15 09:33:34;;;;;;;6.88;1.33;;;22.20;99.90;;;;;;4995520;28;20030;-66
2021/12/15 09:36:03;;;;;;;5.07;1.20;;;22.10;99.90;;;;;;4996474;28;20391;-66
2021/12/15 09:38:31;;;;;;;7.38;1.52;;;22.00;99.90;;;;;;4994943;28;20041;-66
2021/12/15 09:41:02;;;;;;;6.72;1.30;;;21.90;99.90;;;;;;4997138;28;20022;-66
2021/12/15 09:43:31;;;;;;;5.07;1.02;;;21.90;99.90;;;;;;5003223;28;20383;-66
2021/12/15 10:02:57;;;;;;;9.30;1.98;;;21.00;99.90;;;;;;4994192;28;20557;-64
2021/12/15 10:05:26;;;;;;;6.72;1.65;;;21.00;99.90;;;;;;4995367;28;20502;-64
2021/12/15 10:18:54;;;;;;;4.40;1.33;;;20.90;99.90;;;;;;4996262;28;20062;-64
2021/12/15 10:21:26;;;;;;;4.47;1.52;;;20.90;99.90;;;;;;4998606;28;20288;-65
2021/12/15 10:23:54;;;;;;;4.95;1.45;;;20.90;99.90;;;;;;4994893;28;20391;-64
2021/12/15 10:26:23;;;;;;;3.28;1.50;;;20.80;99.90;;;;;;4997889;28;20137;-65
2021/12/15 10:28:52;;;;;;;1.98;1.15;;;20.80;99.90;;;;;;4991998;28;20484;-64
2021/12/15 10:31:27;;;;;;;6.45;1.80;;;20.80;99.90;;;;;;4993552;28;20038;-64
2021/12/15 10:33:58;;;;;;;4.87;1.87;;;20.70;99.90;;;;;;4994394;28;20018;-63
2021/12/15 10:36:36;;;;;;;8.45;2.15;;;20.60;99.90;;;;;;4994618;28;20523;-64
2021/12/15 10:39:07;;;;;;;8.30;2.47;;;20.60;99.90;;;;;;4994170;28;20030;-63
2021/12/15 10:41:38;;;;;;;10.68;2.10;;;20.60;99.90;;;;;;4991991;28;20030;-63
2021/12/15 10:44:09;;;;;;;9.60;2.53;;;20.50;99.90;;;;;;4994152;28;21576;-64
2021/12/15 10:46:41;;;;;;;11.32;2.40;;;20.50;99.90;;;;;;4994514;28;20040;-63
2021/12/15 10:49:17;;;;;;;11.35;2.70;;;20.50;99.90;;;;;;4994001;28;20014;-63
2021/12/15 10:51:47;;;;;;;13.38;2.55;;;20.40;99.90;;;;;;4994207;28;20074;-64
2021/12/15 10:54:17;;;;;;;10.43;2.63;;;20.40;99.90;;;;;;4995491;28;20106;-63
2021/12/15 10:56:56;;;;;;;14.93;2.53;;;20.40;99.90;;;;;;4995511;28;20077;-63
2021/12/15 10:59:26;;;;;;;10.75;2.92;;;20.40;99.90;;;;;;4995460;28;20061;-64
2021/12/15 11:02:06;;;;;;;8.70;2.53;;;20.50;99.90;;;;;;4995507;28;20161;-63
2021/12/15 11:04:41;;;;;;;9.10;2.80;;;20.40;99.90;;;;;;4995473;28;20018;-64
2021/12/15 11:07:14;;;;;;;11.30;2.58;;;20.50;99.90;;;;;;4995409;28;20023;-64
2021/12/15 11:09:49;;;;;;;10.70;3.30;;;20.40;99.90;;;;;;4995370;28;20399;-64
2021/12/15 11:12:47;;;;;;;9.20;2.30;;;20.40;99.90;;;;;;4995370;28;20023;-64
2021/12/15 11:15:36;;;;;;;6.53;2.17;;;20.40;99.90;;;;;;4994426;28;20025;-63
2021/12/15 11:18:05;;;;;;;8.90;2.13;;;20.30;99.90;;;;;;4995261;28;20511;-63
2021/12/15 11:20:36;;;;;;;9.05;2.20;;;20.40;99.90;;;;;;4995047;28;20387;-63
2021/12/15 11:23:06;;;;;;;12.02;2.90;;;20.40;99.90;;;;;;4993641;28;20387;-64
2021/12/15 11:25:51;;;;;;;8.75;2.65;;;20.30;99.90;;;;;;4994037;28;20019;-66
2021/12/15 11:28:35;;;;;;;9.38;2.10;;;20.30;99.90;;;;;;4993765;28;20391;-64
2021/12/15 11:31:08;;;;;;;16.30;2.33;;;20.30;99.90;;;;;;4994336;28;20037;-64
2021/12/15 11:33:41;;;;;;;13.90;2.45;;;20.30;99.90;;;;;;4994298;28;20018;-65
2021/12/15 11:36:18;;;;;;;13.68;3.38;;;20.30;99.90;;;;;;4993694;28;20471;-64
2021/12/15 11:38:48;;;;;;;12.80;1.83;;;20.30;99.90;;;;;;4994289;28;20019;-65
2021/12/15 11:41:23;;;;;;;14.57;2.92;;;20.30;99.90;;;;;;4993250;28;20023;-64
2021/12/15 11:43:53;;;;;;;8.95;2.05;;;20.20;99.90;;;;;;4977563;28;20023;-64
2021/12/15 11:46:28;;;;;;;8.07;2.60;;;20.20;99.90;;;;;;4974669;28;20023;-64
2021/12/15 11:49:23;;;;;;;12.82;2.25;;;20.20;99.90;;;;;;4994119;28;20022;-64
2021/12/15 11:52:00;;;;;;;13.27;3.00;;;20.20;99.90;;;;;;4994214;28;20033;-65
2021/12/15 11:54:38;;;;;;;10.43;2.88;;;20.30;99.90;;;;;;4993543;28;20493;-62
2021/12/15 11:57:22;;;;;;;11.35;2.10;;;20.30;99.90;;;;;;4994255;28;20464;-64
2021/12/15 11:59:52;;;;;;;7.47;2.30;;;20.20;99.90;;;;;;4993873;28;20475;-64
2021/12/15 12:02:25;;;;;;;8.95;3.15;;;20.20;99.90;;;;;;4993758;28;20042;-64
2021/12/15 12:04:59;;;;;;;12.02;2.70;;;20.20;99.90;;;;;;4994021;28;20050;-63
2021/12/15 12:07:29;;;;;;;9.52;2.40;;;20.10;99.90;;;;;;4993938;28;20053;-64
2021/12/15 12:10:13;;;;;;;10.98;3.83;;;20.00;99.90;;;;;;4992268;28;20130;-64
2021/12/15 12:13:06;;;;;;;10.48;3.17;;;20.00;99.90;;;;;;4993574;28;20026;-63
2021/12/15 12:15:33;;;;;;;9.45;2.15;;;20.00;99.90;;;;;;4979993;28;20027;-64
2021/12/15 12:18:07;;;;;;;10.23;2.40;;;20.00;99.90;;;;;;4984027;28;20026;-63
2021/12/15 12:20:43;;;;;;;20.35;3.38;;;20.00;99.90;;;;;;4994199;28;20084;-64
2021/12/15 12:23:10;;;;;;;;;;;20.00;99.90;;;;;;4989409;28;20037;-63
2021/12/15 12:25:42;;;;;;;8.10;2.47;;;20.00;99.90;;;;;;4994242;28;20371;-64
2021/12/15 12:28:13;;;;;;;16.60;2.85;;;20.00;99.90;;;;;;4994903;28;20023;-65
2021/12/15 12:30:50;;;;;;;21.30;3.58;;;20.00;99.90;;;;;;4994631;28;20451;-64
2021/12/15 12:33:19;;;;;;;13.82;2.97;;;19.90;99.90;;;;;;4994530;28;20041;-64
2021/12/15 12:35:53;;;;;;;10.93;2.63;;;20.00;99.90;;;;;;4994452;28;20034;-64
2021/12/15 12:38:27;;;;;;;11.60;2.42;;;19.90;99.90;;;;;;4994711;28;20022;-63
2021/12/15 12:40:59;;;;;;;17.02;3.22;;;20.10;99.90;;;;;;4994402;28;20035;-63
2021/12/15 12:43:31;;;;;;;11.70;2.10;;;20.10;99.90;;;;;;4994414;28;20169;-63
2021/12/15 12:46:16;;;;;;;10.55;2.65;;;20.20;99.90;;;;;;4994368;28;20035;-63
2021/12/15 13:00:49;;;;;;;8.80;2.55;;;20.20;99.90;;;;;;4994269;28;20025;-65
2021/12/15 13:03:28;;;;;;;9.73;2.42;;;20.10;99.90;;;;;;4993744;28;20450;-64
2021/12/15 13:06:06;;;;;;;13.57;2.15;;;20.20;99.90;;;;;;4993569;28;20480;-63
2021/12/15 13:08:38;;;;;;;12.60;2.55;;;20.20;99.90;;;;;;4994020;28;20030;-64
2021/12/15 13:11:10;;;;;;;13.70;2.75;;;20.20;99.90;;;;;;4994243;28;20030;-63
2021/12/15 13:14:11;;;;;;;15.60;2.53;;;20.10;99.90;;;;;;4994212;28;20080;-63
2021/12/15 13:16:56;;;;;;;13.27;2.72;;;20.10;99.90;;;;;;4994008;28;20533;-64
2021/12/15 13:19:42;;;;;;;19.40;4.65;;;20.10;99.90;;;;;;4994030;28;20041;-64
2021/12/15 13:22:24;;;;;;;10.70;3.40;;;20.10;99.90;;;;;;4993966;28;20093;-63
2021/12/15 13:30:51;;;;;;;12.38;2.30;;;20.20;99.90;;;;;;4994139;28;20033;-63
2021/12/15 13:33:37;;;;;;;21.33;3.85;;;20.30;99.90;;;;;;4993873;28;20042;-64
2021/12/15 13:36:25;;;;;;;12.68;2.60;;;20.30;99.90;;;;;;4993905;28;20026;-63
2021/12/15 13:39:04;;;;;;;12.98;2.53;;;20.30;99.90;;;;;;4994004;28;20026;-64
2021/12/15 13:42:00;;;;;;;14.68;3.20;;;20.30;99.90;;;;;;4991495;28;20038;-64
2021/12/15 13:44:47;;;;;;;11.38;2.40;;;20.40;99.90;;;;;;4993207;28;20030;-64
2021/12/15 13:47:24;;;;;;;8.80;2.50;;;20.30;99.90;;;;;;4993187;28;20033;-64
2021/12/15 13:49:57;;;;;;;12.30;2.95;;;20.30;99.90;;;;;;4993814;28;20476;-63
2021/12/15 13:52:47;;;;;;;10.57;2.60;;;20.30;99.90;;;;;;4993782;28;20038;-64
2021/12/15 13:55:30;;;;;;;14.23;2.47;;;20.20;99.90;;;;;;4995205;28;20034;-65
2021/12/15 13:58:04;;;;;;;13.80;3.08;;;20.20;99.90;;;;;;4993707;28;20030;-64
2021/12/15 14:00:37;;;;;;;13.60;2.70;;;20.20;99.90;;;;;;4993597;28;20450;-64
2021/12/15 14:03:37;;;;;;;16.00;3.00;;;20.30;99.90;;;;;;4993531;28;20499;-64
2021/12/15 14:06:11;;;;;;;11.02;2.38;;;20.30;99.90;;;;;;4996411;28;20054;-64
2021/12/15 14:08:51;;;;;;;12.00;2.55;;;20.30;99.90;;;;;;4994030;28;20464;-64
2021/12/15 14:11:25;;;;;;;11.82;2.72;;;20.30;99.90;;;;;;4993757;28;20069;-64
2021/12/15 14:13:59;;;;;;;9.57;2.73;;;20.30;99.90;;;;;;4993717;28;20373;-63
2021/12/15 14:16:48;;;;;;;14.80;3.33;;;20.30;99.90;;;;;;4994132;28;20062;-62
2021/12/15 14:19:31;;;;;;;10.68;2.75;;;20.30;99.90;;;;;;4997093;28;20442;-63
2021/12/15 14:22:05;;;;;;;12.05;3.50;;;20.20;99.90;;;;;;4996924;28;20069;-63
2021/12/15 14:24:34;;;;;;;16.27;3.25;;;20.20;99.90;;;;;;4997056;28;20030;-63
2021/12/15 14:27:02;;;;;;;12.80;3.22;;;20.20;99.90;;;;;;4996813;28;20369;-63
2021/12/15 14:29:31;;;;;;;13.13;2.85;;;20.20;99.90;;;;;;4996901;28;20035;-63
2021/12/15 14:32:01;;;;;;;16.83;3.08;;;20.20;99.90;;;;;;4996768;28;20088;-64
2021/12/15 14:34:41;;;;;;;11.35;2.25;;;20.10;99.90;;;;;;4996769;28;20030;-63
2021/12/15 14:37:12;;;;;;;9.95;2.88;;;20.10;99.90;;;;;;4996905;28;20403;-64
2021/12/15 14:39:42;;;;;;;11.63;2.72;;;20.20;99.90;;;;;;4996662;28;20113;-63